Hopewell, Canada
Current Conditions -  °F | °C
As of 6:00 PM on Wednesday 22 Oct 2014 (Local Time) from CYHZ Reporting Station
Light Rain Light Rain  
Wind Chill: 10°   Ceiling: 1700
Heat Index: 10°   Visibility: 1.5mi
Dew Point:   Wind: 12mph
Humidity: 94%   Direction: 50°NE
Pressure: 30.19"   Gusts: 18mph
Location:  45.47°N, 62.7°W
Report Text: CYHZ 222100Z 05010G16KT 1 1/2SM -RA BR SCT005 OVC017 10/09 A3019 RMK SF3NS5 SLP228
Loading
Personal Weather Stations






























Interactive Weather Map
Tropical Storm Tracking
New forecast layout! Learn more

10-Day Weather Forecast

Advertisements
Track Severe Weather on mobile